Bondsville, Massachusetts
Current Conditions -  °F | °C
As of 8:58 AM on Monday 24 Nov 2014 (Local Time) from KCEF Reporting Station
Light Rain Light Rain  
Wind Chill: 61°   Ceiling: 700
Heat Index: 61°   Visibility: 2mi
Dew Point: 60°   Wind: 15mph
Humidity: 94%   Direction: 180°S
Pressure: 29.67"   Gusts: 31mph
Location:  42.21°N, 72.34°W
Report Text: KCEF 241358Z 18013G27KT 2SM -RA BR SCT003 BKN007 OVC011 16/15 A2967 RMK AO2A PK WND 18027/47 SLP054 P0005 T01630153
Loading
Personal Weather Stations






























Interactive Weather Map New forecast layout! Learn more

10-Day Weather Forecast

Advertisements
Track Severe Weather on mobile